sensor_id;sensor_type;location;lat;lon;timestamp;temperature;humidity
22321;DHT22;11328;53.928;18.522;2023-03-14T00:01:11;11.00;99.90
22321;DHT22;11328;53.928;18.522;2023-03-14T00:03:43;11.00;99.90
22321;DHT22;11328;53.928;18.522;2023-03-14T00:06:11;10.90;99.90
22321;DHT22;11328;53.928;18.522;2023-03-14T00:08:41;11.00;99.90
22321;DHT22;11328;53.928;18.522;2023-03-14T00:11:11;11.00;99.90
22321;DHT22;11328;53.928;18.522;2023-03-14T00:13:47;11.00;99.90
22321;DHT22;11328;53.928;18.522;2023-03-14T00:16:15;11.00;99.90
22321;DHT22;11328;53.928;18.522;2023-03-14T00:18:42;11.00;99.90
22321;DHT22;11328;53.928;18.522;2023-03-14T00:21:10;11.00;99.90
22321;DHT22;11328;53.928;18.522;2023-03-14T00:23:39;11.00;99.90
22321;DHT22;11328;53.928;18.522;2023-03-14T00:26:16;11.00;99.90
22321;DHT22;11328;53.928;18.522;2023-03-14T00:28:44;10.90;99.90
22321;DHT22;11328;53.928;18.522;2023-03-14T00:31:16;10.90;99.90
22321;DHT22;11328;53.928;18.522;2023-03-14T00:33:44;11.00;99.90
22321;DHT22;11328;53.928;18.522;2023-03-14T00:36:16;11.00;99.90
22321;DHT22;11328;53.928;18.522;2023-03-14T00:38:45;11.00;99.90
22321;DHT22;11328;53.928;18.522;2023-03-14T00:41:15;11.00;99.90
22321;DHT22;11328;53.928;18.522;2023-03-14T00:43:49;11.00;99.90
22321;DHT22;11328;53.928;18.522;2023-03-14T00:46:16;11.00;99.90
22321;DHT22;11328;53.928;18.522;2023-03-14T00:48:46;11.00;99.90
22321;DHT22;11328;53.928;18.522;2023-03-14T00:51:14;11.00;99.90
22321;DHT22;11328;53.928;18.522;2023-03-14T00:53:42;11.10;99.90
22321;DHT22;11328;53.928;18.522;2023-03-14T00:56:11;11.10;99.90
22321;DHT22;11328;53.928;18.522;2023-03-14T00:58:39;11.10;99.90
22321;DHT22;11328;53.928;18.522;2023-03-14T01:01:08;11.20;99.90
22321;DHT22;11328;53.928;18.522;2023-03-14T01:03:36;11.20;99.90
22321;DHT22;11328;53.928;18.522;2023-03-14T01:06:17;11.20;99.90
22321;DHT22;11328;53.928;18.522;2023-03-14T01:08:46;11.20;99.90
22321;DHT22;11328;53.928;18.522;2023-03-14T01:11:20;11.30;99.90
22321;DHT22;11328;53.928;18.522;2023-03-14T01:13:49;11.30;99.90
22321;DHT22;11328;53.928;18.522;2023-03-14T01:16:18;11.40;99.90
22321;DHT22;11328;53.928;18.522;2023-03-14T01:18:47;11.40;99.90
22321;DHT22;11328;53.928;18.522;2023-03-14T01:21:27;11.40;99.90
22321;DHT22;11328;53.928;18.522;2023-03-14T01:23:57;11.40;99.90
22321;DHT22;11328;53.928;18.522;2023-03-14T01:26:28;11.50;99.90
22321;DHT22;11328;53.928;18.522;2023-03-14T01:28:57;11.50;99.90
22321;DHT22;11328;53.928;18.522;2023-03-14T01:31:25;11.50;99.90
22321;DHT22;11328;53.928;18.522;2023-03-14T01:33:53;11.60;99.90
22321;DHT22;11328;53.928;18.522;2023-03-14T01:36:19;11.60;99.90
22321;DHT22;11328;53.928;18.522;2023-03-14T01:38:46;11.60;99.90
22321;DHT22;11328;53.928;18.522;2023-03-14T01:41:16;11.60;99.90
22321;DHT22;11328;53.928;18.522;2023-03-14T01:43:49;11.60;99.90
22321;DHT22;11328;53.928;18.522;2023-03-14T01:46:28;11.60;99.90
22321;DHT22;11328;53.928;18.522;2023-03-14T01:49:06;11.60;99.90
22321;DHT22;11328;53.928;18.522;2023-03-14T01:55:13;11.50;99.90
22321;DHT22;11328;53.928;18.522;2023-03-14T01:57:57;11.60;99.90
22321;DHT22;11328;53.928;18.522;2023-03-14T02:00:27;11.50;99.90
22321;DHT22;11328;53.928;18.522;2023-03-14T02:03:00;11.50;99.90
22321;DHT22;11328;53.928;18.522;2023-03-14T02:05:40;11.50;99.90
22321;DHT22;11328;53.928;18.522;2023-03-14T02:08:11;11.60;99.90
22321;DHT22;11328;53.928;18.522;2023-03-14T02:10:44;11.60;99.90
22321;DHT22;11328;53.928;18.522;2023-03-14T02:13:15;11.60;99.90
22321;DHT22;11328;53.928;18.522;2023-03-14T02:15:44;11.50;99.90
22321;DHT22;11328;53.928;18.522;2023-03-14T02:18:13;11.60;99.90
22321;DHT22;11328;53.928;18.522;2023-03-14T02:23:11;11.60;99.90
22321;DHT22;11328;53.928;18.522;2023-03-14T02:25:56;11.50;99.90
22321;DHT22;11328;53.928;18.522;2023-03-14T02:28:30;11.60;99.90
22321;DHT22;11328;53.928;18.522;2023-03-14T02:30:57;11.60;99.90
22321;DHT22;11328;53.928;18.522;2023-03-14T02:33:24;11.60;99.90
22321;DHT22;11328;53.928;18.522;2023-03-14T02:35:59;11.60;99.90
22321;DHT22;11328;53.928;18.522;2023-03-14T02:38:40;11.60;99.90
22321;DHT22;11328;53.928;18.522;2023-03-14T02:41:44;11.60;99.90
22321;DHT22;11328;53.928;18.522;2023-03-14T02:44:12;11.50;99.90
22321;DHT22;11328;53.928;18.522;2023-03-14T02:46:39;11.40;99.90
22321;DHT22;11328;53.928;18.522;2023-03-14T02:49:11;11.50;99.90
22321;DHT22;11328;53.928;18.522;2023-03-14T02:51:40;11.50;99.90
22321;DHT22;11328;53.928;18.522;2023-03-14T02:54:09;11.50;99.90
22321;DHT22;11328;53.928;18.522;2023-03-14T02:56:37;11.40;99.90
22321;DHT22;11328;53.928;18.522;2023-03-14T02:59:04;11.50;99.90
22321;DHT22;11328;53.928;18.522;2023-03-14T03:01:33;11.50;99.90
22321;DHT22;11328;53.928;18.522;2023-03-14T03:04:01;11.40;99.90
22321;DHT22;11328;53.928;18.522;2023-03-14T03:06:28;11.50;99.90
22321;DHT22;11328;53.928;18.522;2023-03-14T03:08:54;11.50;99.90
22321;DHT22;11328;53.928;18.522;2023-03-14T03:11:22;11.50;99.90
22321;DHT22;11328;53.928;18.522;2023-03-14T03:13:49;11.50;99.90
22321;DHT22;11328;53.928;18.522;2023-03-14T03:16:15;11.50;99.90
22321;DHT22;11328;53.928;18.522;2023-03-14T03:18:42;11.50;99.90
22321;DHT22;11328;53.928;18.522;2023-03-14T03:21:09;11.50;99.90
22321;DHT22;11328;53.928;18.522;2023-03-14T03:23:36;11.50;99.90
22321;DHT22;11328;53.928;18.522;2023-03-14T03:26:03;11.50;99.90
22321;DHT22;11328;53.928;18.522;2023-03-14T03:28:30;11.50;99.90
22321;DHT22;11328;53.928;18.522;2023-03-14T03:30:57;11.50;99.90
22321;DHT22;11328;53.928;18.522;2023-03-14T03:33:25;11.50;99.90
22321;DHT22;11328;53.928;18.522;2023-03-14T03:35:52;11.50;99.90
22321;DHT22;11328;53.928;18.522;2023-03-14T03:38:19;11.50;99.90
22321;DHT22;11328;53.928;18.522;2023-03-14T03:40:46;11.50;99.90
22321;DHT22;11328;53.928;18.522;2023-03-14T03:43:13;11.50;99.90
22321;DHT22;11328;53.928;18.522;2023-03-14T03:45:40;11.60;99.90
22321;DHT22;11328;53.928;18.522;2023-03-14T03:48:07;11.60;99.90
22321;DHT22;11328;53.928;18.522;2023-03-14T03:50:34;11.60;99.90
22321;DHT22;11328;53.928;18.522;2023-03-14T03:53:01;11.60;99.90
22321;DHT22;11328;53.928;18.522;2023-03-14T03:55:28;11.70;99.90
22321;DHT22;11328;53.928;18.522;2023-03-14T03:57:55;11.70;99.90
22321;DHT22;11328;53.928;18.522;2023-03-14T04:00:22;11.70;99.90
22321;DHT22;11328;53.928;18.522;2023-03-14T04:02:49;11.70;99.90
22321;DHT22;11328;53.928;18.522;2023-03-14T04:05:16;11.60;99.90
22321;DHT22;11328;53.928;18.522;2023-03-14T04:07:43;11.70;99.90
22321;DHT22;11328;53.928;18.522;2023-03-14T04:10:10;11.70;99.90
22321;DHT22;11328;53.928;18.522;2023-03-14T04:12:37;11.70;99.90
22321;DHT22;11328;53.928;18.522;2023-03-14T04:15:04;11.60;99.90
22321;DHT22;11328;53.928;18.522;2023-03-14T04:17:32;11.60;99.90
22321;DHT22;11328;53.928;18.522;2023-03-14T04:19:59;11.70;99.90
22321;DHT22;11328;53.928;18.522;2023-03-14T04:22:25;11.60;99.90
22321;DHT22;11328;53.928;18.522;2023-03-14T04:24:52;11.70;99.90
22321;DHT22;11328;53.928;18.522;2023-03-14T04:27:19;11.70;99.90
22321;DHT22;11328;53.928;18.522;2023-03-14T04:29:46;11.80;99.90
22321;DHT22;11328;53.928;18.522;2023-03-14T04:32:13;11.70;99.90
22321;DHT22;11328;53.928;18.522;2023-03-14T04:34:41;11.70;99.90
22321;DHT22;11328;53.928;18.522;2023-03-14T04:37:08;11.80;99.90
22321;DHT22;11328;53.928;18.522;2023-03-14T04:39:35;11.70;99.90
22321;DHT22;11328;53.928;18.522;2023-03-14T04:42:02;11.80;99.90
22321;DHT22;11328;53.928;18.522;2023-03-14T04:44:29;11.70;99.90
22321;DHT22;11328;53.928;18.522;2023-03-14T04:46:56;11.80;99.90
22321;DHT22;11328;53.928;18.522;2023-03-14T04:49:23;11.80;99.90
22321;DHT22;11328;53.928;18.522;2023-03-14T04:51:49;11.70;99.90
22321;DHT22;11328;53.928;18.522;2023-03-14T04:54:19;11.80;99.90
22321;DHT22;11328;53.928;18.522;2023-03-14T04:56:46;11.80;99.90
22321;DHT22;11328;53.928;18.522;2023-03-14T04:59:13;11.80;99.90
22321;DHT22;11328;53.928;18.522;2023-03-14T05:01:40;11.80;99.90
22321;DHT22;11328;53.928;18.522;2023-03-14T05:04:07;11.80;99.90
22321;DHT22;11328;53.928;18.522;2023-03-14T05:06:34;11.80;99.90
22321;DHT22;11328;53.928;18.522;2023-03-14T05:09:01;11.80;99.90
22321;DHT22;11328;53.928;18.522;2023-03-14T05:11:28;11.90;99.90
22321;DHT22;11328;53.928;18.522;2023-03-14T05:13:55;11.90;99.90
22321;DHT22;11328;53.928;18.522;2023-03-14T05:16:22;11.90;99.90
22321;DHT22;11328;53.928;18.522;2023-03-14T05:18:50;11.90;99.90
22321;DHT22;11328;53.928;18.522;2023-03-14T05:21:17;11.90;99.90
22321;DHT22;11328;53.928;18.522;2023-03-14T05:23:44;11.90;99.90
22321;DHT22;11328;53.928;18.522;2023-03-14T05:26:11;11.90;99.90
22321;DHT22;11328;53.928;18.522;2023-03-14T05:28:38;11.90;99.90
22321;DHT22;11328;53.928;18.522;2023-03-14T05:31:08;12.00;99.90
22321;DHT22;11328;53.928;18.522;2023-03-14T05:33:36;12.00;99.90
22321;DHT22;11328;53.928;18.522;2023-03-14T05:36:03;12.00;99.90
22321;DHT22;11328;53.928;18.522;2023-03-14T05:38:30;12.00;99.90
22321;DHT22;11328;53.928;18.522;2023-03-14T05:40:57;12.10;99.90
22321;DHT22;11328;53.928;18.522;2023-03-14T05:43:24;12.00;99.90
22321;DHT22;11328;53.928;18.522;2023-03-14T05:45:51;12.00;99.90
22321;DHT22;11328;53.928;18.522;2023-03-14T05:48:18;12.10;99.90
22321;DHT22;11328;53.928;18.522;2023-03-14T05:50:45;12.10;99.90
22321;DHT22;11328;53.928;18.522;2023-03-14T05:53:12;12.10;99.90
22321;DHT22;11328;53.928;18.522;2023-03-14T05:55:39;12.10;99.90
22321;DHT22;11328;53.928;18.522;2023-03-14T05:58:06;12.10;99.90
22321;DHT22;11328;53.928;18.522;2023-03-14T06:00:33;12.10;99.90
22321;DHT22;11328;53.928;18.522;2023-03-14T06:03:00;12.10;99.90
22321;DHT22;11328;53.928;18.522;2023-03-14T06:05:27;12.20;99.90
22321;DHT22;11328;53.928;18.522;2023-03-14T06:07:54;12.20;99.90
22321;DHT22;11328;53.928;18.522;2023-03-14T06:10:21;12.20;99.90
22321;DHT22;11328;53.928;18.522;2023-03-14T06:12:48;12.20;99.90
22321;DHT22;11328;53.928;18.522;2023-03-14T06:15:15;12.20;99.90
22321;DHT22;11328;53.928;18.522;2023-03-14T06:17:42;12.20;99.90
22321;DHT22;11328;53.928;18.522;2023-03-14T06:20:09;12.20;99.90
22321;DHT22;11328;53.928;18.522;2023-03-14T06:22:37;12.20;99.90
22321;DHT22;11328;53.928;18.522;2023-03-14T06:25:05;12.20;99.90
22321;DHT22;11328;53.928;18.522;2023-03-14T06:27:33;12.20;99.90
22321;DHT22;11328;53.928;18.522;2023-03-14T06:30:00;12.30;99.90
22321;DHT22;11328;53.928;18.522;2023-03-14T06:32:27;12.30;99.90
22321;DHT22;11328;53.928;18.522;2023-03-14T06:34:57;12.40;99.90
22321;DHT22;11328;53.928;18.522;2023-03-14T06:37:28;12.40;99.90
22321;DHT22;11328;53.928;18.522;2023-03-14T06:39:55;12.50;99.90
22321;DHT22;11328;53.928;18.522;2023-03-14T06:42:22;12.50;99.90
22321;DHT22;11328;53.928;18.522;2023-03-14T06:44:49;12.50;99.90
22321;DHT22;11328;53.928;18.522;2023-03-14T06:47:16;12.50;99.90
22321;DHT22;11328;53.928;18.522;2023-03-14T06:49:43;12.50;99.90
22321;DHT22;11328;53.928;18.522;2023-03-14T06:52:10;12.60;99.90
22321;DHT22;11328;53.928;18.522;2023-03-14T06:54:37;12.60;99.90
22321;DHT22;11328;53.928;18.522;2023-03-14T06:57:03;12.60;99.90
22321;DHT22;11328;53.928;18.522;2023-03-14T06:59:30;12.60;99.90
22321;DHT22;11328;53.928;18.522;2023-03-14T07:01:57;12.70;99.90
22321;DHT22;11328;53.928;18.522;2023-03-14T07:04:24;12.60;99.90
22321;DHT22;11328;53.928;18.522;2023-03-14T07:06:51;12.60;99.90
22321;DHT22;11328;53.928;18.522;2023-03-14T07:09:18;12.60;99.90
22321;DHT22;11328;53.928;18.522;2023-03-14T07:11:45;12.60;99.90
22321;DHT22;11328;53.928;18.522;2023-03-14T07:14:12;12.60;99.90
22321;DHT22;11328;53.928;18.522;2023-03-14T07:16:38;12.60;99.90
22321;DHT22;11328;53.928;18.522;2023-03-14T07:19:05;12.60;99.90
22321;DHT22;11328;53.928;18.522;2023-03-14T07:21:32;12.60;99.90
22321;DHT22;11328;53.928;18.522;2023-03-14T07:24:01;12.60;99.90
22321;DHT22;11328;53.928;18.522;2023-03-14T07:26:28;12.60;99.90
22321;DHT22;11328;53.928;18.522;2023-03-14T07:28:55;12.60;99.90
22321;DHT22;11328;53.928;18.522;2023-03-14T07:31:22;12.60;99.90
22321;DHT22;11328;53.928;18.522;2023-03-14T07:33:50;12.70;99.90
22321;DHT22;11328;53.928;18.522;2023-03-14T07:36:17;12.70;99.90
22321;DHT22;11328;53.928;18.522;2023-03-14T07:38:44;12.70;99.90
22321;DHT22;11328;53.928;18.522;2023-03-14T07:41:11;12.70;99.90
22321;DHT22;11328;53.928;18.522;2023-03-14T07:43:38;12.70;99.90
22321;DHT22;11328;53.928;18.522;2023-03-14T07:46:05;12.80;99.90
22321;DHT22;11328;53.928;18.522;2023-03-14T07:48:32;12.80;99.90
22321;DHT22;11328;53.928;18.522;2023-03-14T07:50:59;12.80;99.90
22321;DHT22;11328;53.928;18.522;2023-03-14T07:53:26;12.90;99.90
22321;DHT22;11328;53.928;18.522;2023-03-14T07:55:54;12.90;99.90
22321;DHT22;11328;53.928;18.522;2023-03-14T07:58:21;13.10;99.90
22321;DHT22;11328;53.928;18.522;2023-03-14T08:00:50;13.10;99.90
22321;DHT22;11328;53.928;18.522;2023-03-14T08:03:17;13.00;99.90
22321;DHT22;11328;53.928;18.522;2023-03-14T08:05:48;13.10;99.90
22321;DHT22;11328;53.928;18.522;2023-03-14T08:08:16;13.20;99.90
22321;DHT22;11328;53.928;18.522;2023-03-14T08:10:43;13.20;99.90
22321;DHT22;11328;53.928;18.522;2023-03-14T08:13:11;13.10;99.90
22321;DHT22;11328;53.928;18.522;2023-03-14T08:15:37;13.20;99.90
22321;DHT22;11328;53.928;18.522;2023-03-14T08:18:05;13.10;99.90
22321;DHT22;11328;53.928;18.522;2023-03-14T08:20:32;13.10;99.90
22321;DHT22;11328;53.928;18.522;2023-03-14T08:23:00;13.10;99.90
22321;DHT22;11328;53.928;18.522;2023-03-14T08:25:29;13.10;99.90
22321;DHT22;11328;53.928;18.522;2023-03-14T08:27:56;13.10;99.90
22321;DHT22;11328;53.928;18.522;2023-03-14T08:30:24;13.10;99.90
22321;DHT22;11328;53.928;18.522;2023-03-14T08:32:51;13.10;99.90
22321;DHT22;11328;53.928;18.522;2023-03-14T08:35:18;13.20;99.90
22321;DHT22;11328;53.928;18.522;2023-03-14T08:37:45;13.10;99.90
22321;DHT22;11328;53.928;18.522;2023-03-14T08:40:13;13.20;99.90
22321;DHT22;11328;53.928;18.522;2023-03-14T08:42:41;13.20;99.90
22321;DHT22;11328;53.928;18.522;2023-03-14T08:45:10;13.20;99.90
22321;DHT22;11328;53.928;18.522;2023-03-14T08:47:39;13.20;99.90
22321;DHT22;11328;53.928;18.522;2023-03-14T08:50:07;13.30;99.90
22321;DHT22;11328;53.928;18.522;2023-03-14T08:52:35;13.30;99.90
22321;DHT22;11328;53.928;18.522;2023-03-14T08:55:04;13.30;99.90
22321;DHT22;11328;53.928;18.522;2023-03-14T08:57:32;13.20;99.90
22321;DHT22;11328;53.928;18.522;2023-03-14T08:59:59;13.30;99.90
22321;DHT22;11328;53.928;18.522;2023-03-14T09:02:26;13.20;99.90
22321;DHT22;11328;53.928;18.522;2023-03-14T09:04:53;13.20;99.90
22321;DHT22;11328;53.928;18.522;2023-03-14T09:07:20;13.30;99.90
22321;DHT22;11328;53.928;18.522;2023-03-14T09:09:47;13.30;99.90
22321;DHT22;11328;53.928;18.522;2023-03-14T09:12:14;13.30;99.90
22321;DHT22;11328;53.928;18.522;2023-03-14T09:14:41;13.20;99.90
22321;DHT22;11328;53.928;18.522;2023-03-14T09:17:08;13.30;99.90
22321;DHT22;11328;53.928;18.522;2023-03-14T09:19:35;13.30;99.90
22321;DHT22;11328;53.928;18.522;2023-03-14T09:22:03;13.20;99.90
22321;DHT22;11328;53.928;18.522;2023-03-14T09:24:29;13.30;99.90
22321;DHT22;11328;53.928;18.522;2023-03-14T09:26:57;13.30;99.90
22321;DHT22;11328;53.928;18.522;2023-03-14T09:29:25;13.30;99.90
22321;DHT22;11328;53.928;18.522;2023-03-14T09:31:53;13.30;99.90
22321;DHT22;11328;53.928;18.522;2023-03-14T09:34:20;13.20;99.90
22321;DHT22;11328;53.928;18.522;2023-03-14T09:36:47;13.10;99.90
22321;DHT22;11328;53.928;18.522;2023-03-14T09:39:14;13.10;99.90
22321;DHT22;11328;53.928;18.522;2023-03-14T09:41:46;13.00;99.90
22321;DHT22;11328;53.928;18.522;2023-03-14T09:44:27;13.00;99.90
22321;DHT22;11328;53.928;18.522;2023-03-14T09:47:00;13.10;99.90
22321;DHT22;11328;53.928;18.522;2023-03-14T09:49:34;13.10;99.90
22321;DHT22;11328;53.928;18.522;2023-03-14T09:52:15;13.10;99.90
22321;DHT22;11328;53.928;18.522;2023-03-14T09:55:05;13.10;99.90
22321;DHT22;11328;53.928;18.522;2023-03-14T09:57:36;13.00;99.90
22321;DHT22;11328;53.928;18.522;2023-03-14T10:00:20;13.00;99.90
22321;DHT22;11328;53.928;18.522;2023-03-14T10:03:00;13.10;99.90
22321;DHT22;11328;53.928;18.522;2023-03-14T10:05:46;13.00;99.90
22321;DHT22;11328;53.928;18.522;2023-03-14T10:08:13;13.00;99.90
22321;DHT22;11328;53.928;18.522;2023-03-14T10:10:42;13.00;99.90
22321;DHT22;11328;53.928;18.522;2023-03-14T10:13:26;13.00;99.90
22321;DHT22;11328;53.928;18.522;2023-03-14T10:16:02;13.00;99.90
22321;DHT22;11328;53.928;18.522;2023-03-14T10:18:33;13.00;99.90
22321;DHT22;11328;53.928;18.522;2023-03-14T10:21:17;12.90;99.90
22321;DHT22;11328;53.928;18.522;2023-03-14T10:23:48;13.00;99.90
22321;DHT22;11328;53.928;18.522;2023-03-14T10:26:17;12.90;99.90
22321;DHT22;11328;53.928;18.522;2023-03-14T10:28:52;12.90;99.90
22321;DHT22;11328;53.928;18.522;2023-03-14T10:31:27;13.00;99.90
22321;DHT22;11328;53.928;18.522;2023-03-14T10:34:03;12.80;99.90
22321;DHT22;11328;53.928;18.522;2023-03-14T10:36:33;12.80;99.90
22321;DHT22;11328;53.928;18.522;2023-03-14T10:41:51;12.80;99.90
22321;DHT22;11328;53.928;18.522;2023-03-14T10:44:24;12.80;99.90
22321;DHT22;11328;53.928;18.522;2023-03-14T10:47:03;12.80;99.90
22321;DHT22;11328;53.928;18.522;2023-03-14T10:49:33;12.90;99.90
22321;DHT22;11328;53.928;18.522;2023-03-14T10:52:15;12.80;99.90
22321;DHT22;11328;53.928;18.522;2023-03-14T10:54:47;12.90;99.90
22321;DHT22;11328;53.928;18.522;2023-03-14T10:57:15;13.00;99.90
22321;DHT22;11328;53.928;18.522;2023-03-14T10:59:43;13.00;99.90
22321;DHT22;11328;53.928;18.522;2023-03-14T11:05:03;13.20;99.90
22321;DHT22;11328;53.928;18.522;2023-03-14T11:07:44;13.10;99.90
22321;DHT22;11328;53.928;18.522;2023-03-14T11:10:29;13.10;99.90
22321;DHT22;11328;53.928;18.522;2023-03-14T11:13:20;13.10;99.90
22321;DHT22;11328;53.928;18.522;2023-03-14T11:16:57;13.10;99.90
22321;DHT22;11328;53.928;18.522;2023-03-14T11:19:43;13.20;99.90
22321;DHT22;11328;53.928;18.522;2023-03-14T11:22:50;13.30;99.90
22321;DHT22;11328;53.928;18.522;2023-03-14T11:28:26;13.40;99.90
22321;DHT22;11328;53.928;18.522;2023-03-14T11:31:25;13.50;99.90
22321;DHT22;11328;53.928;18.522;2023-03-14T11:33:56;13.60;99.90
22321;DHT22;11328;53.928;18.522;2023-03-14T11:39:40;13.80;99.90
22321;DHT22;11328;53.928;18.522;2023-03-14T11:42:15;13.80;99.90
22321;DHT22;11328;53.928;18.522;2023-03-14T11:44:47;13.70;99.90
22321;DHT22;11328;53.928;18.522;2023-03-14T11:47:24;13.70;99.90
22321;DHT22;11328;53.928;18.522;2023-03-14T11:50:14;13.90;99.90
22321;DHT22;11328;53.928;18.522;2023-03-14T11:52:53;13.80;99.90
22321;DHT22;11328;53.928;18.522;2023-03-14T11:55:27;14.10;99.90
22321;DHT22;11328;53.928;18.522;2023-03-14T11:58:25;14.20;99.90
22321;DHT22;11328;53.928;18.522;2023-03-14T12:00:56;14.30;99.90
22321;DHT22;11328;53.928;18.522;2023-03-14T12:04:13;14.40;99.90
22321;DHT22;11328;53.928;18.522;2023-03-14T12:09:11;14.80;99.90
22321;DHT22;11328;53.928;18.522;2023-03-14T12:11:52;14.80;99.90
22321;DHT22;11328;53.928;18.522;2023-03-14T12:14:36;14.90;99.90
22321;DHT22;11328;53.928;18.522;2023-03-14T12:17:26;15.00;99.90
22321;DHT22;11328;53.928;18.522;2023-03-14T12:20:05;15.00;99.90
22321;DHT22;11328;53.928;18.522;2023-03-14T12:22:35;15.00;99.90
22321;DHT22;11328;53.928;18.522;2023-03-14T12:35:39;15.30;99.90
22321;DHT22;11328;53.928;18.522;2023-03-14T12:41:05;15.20;99.90
22321;DHT22;11328;53.928;18.522;2023-03-14T12:43:42;15.20;99.90
22321;DHT22;11328;53.928;18.522;2023-03-14T12:48:56;15.20;99.90
22321;DHT22;11328;53.928;18.522;2023-03-14T12:51:40;15.10;99.90
22321;DHT22;11328;53.928;18.522;2023-03-14T12:59:58;15.20;99.90
22321;DHT22;11328;53.928;18.522;2023-03-14T13:02:43;15.40;99.90
22321;DHT22;11328;53.928;18.522;2023-03-14T13:05:25;15.30;99.90
22321;DHT22;11328;53.928;18.522;2023-03-14T13:10:39;15.40;99.90
22321;DHT22;11328;53.928;18.522;2023-03-14T13:13:20;15.50;99.90
22321;DHT22;11328;53.928;18.522;2023-03-14T13:15:57;15.50;99.90
22321;DHT22;11328;53.928;18.522;2023-03-14T13:18:36;15.60;99.90
22321;DHT22;11328;53.928;18.522;2023-03-14T13:21:12;15.50;99.90
22321;DHT22;11328;53.928;18.522;2023-03-14T13:23:40;15.50;99.90
22321;DHT22;11328;53.928;18.522;2023-03-14T13:26:14;15.40;99.90
22321;DHT22;11328;53.928;18.522;2023-03-14T13:28:41;15.60;99.90
22321;DHT22;11328;53.928;18.522;2023-03-14T13:31:23;15.60;99.90
22321;DHT22;11328;53.928;18.522;2023-03-14T13:34:04;15.50;99.90
22321;DHT22;11328;53.928;18.522;2023-03-14T13:36:36;15.50;99.90
22321;DHT22;11328;53.928;18.522;2023-03-14T13:39:06;15.50;99.90
22321;DHT22;11328;53.928;18.522;2023-03-14T13:41:40;15.40;99.90
22321;DHT22;11328;53.928;18.522;2023-03-14T13:44:14;15.30;99.90
22321;DHT22;11328;53.928;18.522;2023-03-14T13:46:43;15.40;99.90
22321;DHT22;11328;53.928;18.522;2023-03-14T13:49:16;15.50;99.90
22321;DHT22;11328;53.928;18.522;2023-03-14T13:51:51;15.50;99.90
22321;DHT22;11328;53.928;18.522;2023-03-14T13:54:20;15.50;99.90
22321;DHT22;11328;53.928;18.522;2023-03-14T13:56:49;15.40;99.90
22321;DHT22;11328;53.928;18.522;2023-03-14T13:59:34;15.40;99.90
22321;DHT22;11328;53.928;18.522;2023-03-14T14:02:09;15.40;99.90
22321;DHT22;11328;53.928;18.522;2023-03-14T14:04:43;15.40;99.90
22321;DHT22;11328;53.928;18.522;2023-03-14T14:07:16;15.20;99.90
22321;DHT22;11328;53.928;18.522;2023-03-14T14:09:50;15.20;99.90
22321;DHT22;11328;53.928;18.522;2023-03-14T14:12:28;15.20;99.90
22321;DHT22;11328;53.928;18.522;2023-03-14T14:15:12;15.30;99.90
22321;DHT22;11328;53.928;18.522;2023-03-14T14:18:00;15.30;99.90
22321;DHT22;11328;53.928;18.522;2023-03-14T14:20:38;15.10;99.90
22321;DHT22;11328;53.928;18.522;2023-03-14T14:23:17;15.00;99.90
22321;DHT22;11328;53.928;18.522;2023-03-14T14:25:52;14.90;99.90
22321;DHT22;11328;53.928;18.522;2023-03-14T14:28:32;14.90;99.90
22321;DHT22;11328;53.928;18.522;2023-03-14T14:31:06;14.90;99.90
22321;DHT22;11328;53.928;18.522;2023-03-14T14:34:03;14.80;99.90
22321;DHT22;11328;53.928;18.522;2023-03-14T14:36:42;14.80;99.90
22321;DHT22;11328;53.928;18.522;2023-03-14T14:39:24;14.80;99.90
22321;DHT22;11328;53.928;18.522;2023-03-14T14:41:53;14.70;99.90
22321;DHT22;11328;53.928;18.522;2023-03-14T14:44:34;14.80;99.90
22321;DHT22;11328;53.928;18.522;2023-03-14T14:47:03;14.80;99.90
22321;DHT22;11328;53.928;18.522;2023-03-14T14:49:32;14.80;99.90
22321;DHT22;11328;53.928;18.522;2023-03-14T14:52:08;14.80;99.90
22321;DHT22;11328;53.928;18.522;2023-03-14T14:54:53;14.70;99.90
22321;DHT22;11328;53.928;18.522;2023-03-14T14:57:54;14.70;99.90
22321;DHT22;11328;53.928;18.522;2023-03-14T15:00:26;14.60;99.90
22321;DHT22;11328;53.928;18.522;2023-03-14T15:02:59;14.50;99.90
22321;DHT22;11328;53.928;18.522;2023-03-14T15:05:27;14.40;99.90
22321;DHT22;11328;53.928;18.522;2023-03-14T15:07:56;14.20;99.90
22321;DHT22;11328;53.928;18.522;2023-03-14T15:10:25;14.20;99.90
22321;DHT22;11328;53.928;18.522;2023-03-14T15:12:52;14.10;99.90
22321;DHT22;11328;53.928;18.522;2023-03-14T15:15:20;14.10;99.90
22321;DHT22;11328;53.928;18.522;2023-03-14T15:17:49;14.20;99.90
22321;DHT22;11328;53.928;18.522;2023-03-14T15:20:17;14.20;99.90
22321;DHT22;11328;53.928;18.522;2023-03-14T15:22:46;14.20;99.90
22321;DHT22;11328;53.928;18.522;2023-03-14T15:25:13;14.20;99.90
22321;DHT22;11328;53.928;18.522;2023-03-14T15:28:00;14.10;99.90
22321;DHT22;11328;53.928;18.522;2023-03-14T15:30:27;14.10;99.90
22321;DHT22;11328;53.928;18.522;2023-03-14T15:32:54;14.20;99.90
22321;DHT22;11328;53.928;18.522;2023-03-14T15:35:21;14.10;99.90
22321;DHT22;11328;53.928;18.522;2023-03-14T15:37:48;14.10;99.90
22321;DHT22;11328;53.928;18.522;2023-03-14T15:40:15;14.10;99.90
22321;DHT22;11328;53.928;18.522;2023-03-14T15:42:42;14.10;99.90
22321;DHT22;11328;53.928;18.522;2023-03-14T15:45:09;14.20;99.90
22321;DHT22;11328;53.928;18.522;2023-03-14T15:47:36;14.20;99.90
22321;DHT22;11328;53.928;18.522;2023-03-14T15:50:09;14.20;99.90
22321;DHT22;11328;53.928;18.522;2023-03-14T15:52:36;14.20;99.90
22321;DHT22;11328;53.928;18.522;2023-03-14T15:55:04;14.10;99.90
22321;DHT22;11328;53.928;18.522;2023-03-14T15:57:31;14.10;99.90
22321;DHT22;11328;53.928;18.522;2023-03-14T15:59:58;14.00;99.90
22321;DHT22;11328;53.928;18.522;2023-03-14T16:02:25;14.10;99.90
22321;DHT22;11328;53.928;18.522;2023-03-14T16:04:53;14.00;99.90
22321;DHT22;11328;53.928;18.522;2023-03-14T16:07:20;14.00;99.90
22321;DHT22;11328;53.928;18.522;2023-03-14T16:09:47;14.00;99.90
22321;DHT22;11328;53.928;18.522;2023-03-14T16:12:14;13.90;99.90
22321;DHT22;11328;53.928;18.522;2023-03-14T16:14:41;13.90;99.90
22321;DHT22;11328;53.928;18.522;2023-03-14T16:17:09;13.90;99.90
22321;DHT22;11328;53.928;18.522;2023-03-14T16:19:39;13.90;99.90
22321;DHT22;11328;53.928;18.522;2023-03-14T16:22:11;13.90;99.90
22321;DHT22;11328;53.928;18.522;2023-03-14T16:24:38;13.90;99.90